createdAt,value
2023-04-21T00:02:26.598Z,7.60
2023-04-21T00:04:56.309Z,7.70
2023-04-21T00:07:25.689Z,6.80
2023-04-21T00:09:53.576Z,6.80
2023-04-21T00:12:21.417Z,7.30
2023-04-21T00:14:49.325Z,8.00
2023-04-21T00:17:17.155Z,7.00
2023-04-21T00:19:45.018Z,7.20
2023-04-21T00:22:14.952Z,7.00
2023-04-21T00:24:44.172Z,8.50
2023-04-21T00:27:13.282Z,8.10
2023-04-21T00:29:41.321Z,7.50
2023-04-21T00:32:10.146Z,7.10
2023-04-21T00:34:38.096Z,7.10
2023-04-21T00:37:05.949Z,9.10
2023-04-21T00:39:33.867Z,7.10
2023-04-21T00:42:03.089Z,7.10
2023-04-21T00:44:31.049Z,7.90
2023-04-21T00:46:59.020Z,7.10
2023-04-21T00:49:26.991Z,7.10
2023-04-21T00:51:55.462Z,7.50
2023-04-21T00:54:26.036Z,7.40
2023-04-21T00:56:56.002Z,7.90
2023-04-21T00:59:25.333Z,9.10
2023-04-21T01:01:54.496Z,8.40
2023-04-21T01:04:22.659Z,8.20
2023-04-21T01:06:50.936Z,7.60
2023-04-21T01:09:19.149Z,7.20
2023-04-21T01:12:03.491Z,7.20
2023-04-21T01:14:32.879Z,8.30
2023-04-21T01:17:01.140Z,7.30
2023-04-21T01:19:34.216Z,9.00
2023-04-21T01:22:03.659Z,7.30
2023-04-21T01:24:39.307Z,7.30
2023-04-21T01:27:11.462Z,8.30
2023-04-21T01:29:40.504Z,7.80
2023-04-21T01:32:10.369Z,7.40
2023-04-21T01:34:38.664Z,7.40
2023-04-21T01:37:10.161Z,7.40
2023-04-21T01:39:39.664Z,7.40
2023-04-21T01:42:08.576Z,7.90
2023-04-21T01:44:37.040Z,7.60
2023-04-21T01:47:05.447Z,8.10
2023-04-21T01:49:33.350Z,7.70
2023-04-21T01:52:01.332Z,7.40
2023-04-21T01:54:30.797Z,8.30
2023-04-21T01:56:58.844Z,7.40
2023-04-21T01:59:27.180Z,7.40
2023-04-21T02:01:55.171Z,7.30
2023-04-21T02:04:23.260Z,7.40
2023-04-21T02:06:51.357Z,7.40
2023-04-21T02:09:19.380Z,7.40
2023-04-21T02:11:48.817Z,7.50
2023-04-21T02:14:16.732Z,7.40
2023-04-21T02:16:44.594Z,8.00
2023-04-21T02:19:12.570Z,7.40
2023-04-21T02:21:40.508Z,7.50
2023-04-21T02:24:08.486Z,7.30
2023-04-21T02:26:36.347Z,7.30
2023-04-21T02:29:05.586Z,8.30
2023-04-21T02:31:40.483Z,7.30
2023-04-21T02:34:14.284Z,7.40
2023-04-21T02:36:42.123Z,7.40
2023-04-21T02:39:10.263Z,7.50
2023-04-21T02:41:38.132Z,7.30
2023-04-21T02:44:07.512Z,7.30
2023-04-21T02:46:35.384Z,7.30
2023-04-21T02:49:03.454Z,7.30
2023-04-21T02:51:31.645Z,7.90
2023-04-21T02:53:59.487Z,7.30
2023-04-21T02:56:27.484Z,8.20
2023-04-21T02:58:55.288Z,8.60
2023-04-21T03:01:24.579Z,8.00
2023-04-21T03:03:52.558Z,7.70
2023-04-21T03:06:20.560Z,8.50
2023-04-21T03:08:48.432Z,7.20
2023-04-21T03:11:16.294Z,7.60
2023-04-21T03:13:44.154Z,7.90
2023-04-21T03:16:12.011Z,7.10
2023-04-21T03:18:41.225Z,8.30
2023-04-21T03:21:09.160Z,7.00
2023-04-21T03:23:36.989Z,7.50
2023-04-21T03:26:08.050Z,7.00
2023-04-21T03:28:36.179Z,7.10
2023-04-21T03:31:04.159Z,7.80
2023-04-21T03:33:32.016Z,7.10
2023-04-21T03:36:01.211Z,7.70
2023-04-21T03:38:30.396Z,8.00
2023-04-21T03:40:58.221Z,7.70
2023-04-21T03:43:26.075Z,7.50
2023-04-21T03:45:53.986Z,7.10
2023-04-21T03:48:21.815Z,7.20
2023-04-21T03:50:49.801Z,8.50
2023-04-21T03:53:19.082Z,7.10
2023-04-21T03:55:48.714Z,7.10
2023-04-21T03:58:16.603Z,7.20
2023-04-21T04:00:44.588Z,8.60
2023-04-21T04:03:12.591Z,7.10
2023-04-21T04:05:40.657Z,7.10
2023-04-21T04:08:08.680Z,8.00
2023-04-21T04:10:37.972Z,8.50
2023-04-21T04:13:05.895Z,8.00
2023-04-21T04:15:33.850Z,7.10
2023-04-21T04:18:01.932Z,7.10
2023-04-21T04:20:29.841Z,7.70
2023-04-21T04:22:57.691Z,7.20
2023-04-21T04:25:25.862Z,8.00
2023-04-21T04:27:55.559Z,7.20
2023-04-21T04:30:23.952Z,7.20
2023-04-21T04:32:52.918Z,7.20
2023-04-21T04:35:21.063Z,7.60
2023-04-21T04:37:49.641Z,7.10
2023-04-21T04:40:17.520Z,7.40
2023-04-21T04:42:46.953Z,7.10
2023-04-21T04:45:16.686Z,8.30
2023-04-21T04:47:47.648Z,7.10
2023-04-21T04:50:15.496Z,7.20
2023-04-21T04:52:46.718Z,8.50
2023-04-21T04:55:15.048Z,7.90
2023-04-21T04:57:42.892Z,7.80
2023-04-21T05:00:12.401Z,8.80
2023-04-21T05:02:41.995Z,7.50
2023-04-21T05:05:10.123Z,7.60
2023-04-21T05:07:38.314Z,8.50
2023-04-21T05:10:06.936Z,7.80
2023-04-21T05:12:34.764Z,7.70
2023-04-21T05:15:02.600Z,7.80
2023-04-21T05:17:31.259Z,8.90
2023-04-21T05:20:00.766Z,7.90
2023-04-21T05:22:28.585Z,8.00
2023-04-21T05:24:56.453Z,8.00
2023-04-21T05:27:24.349Z,8.10
2023-04-21T05:29:52.216Z,8.10
2023-04-21T05:32:20.079Z,8.20
2023-04-21T05:34:48.048Z,8.70
2023-04-21T05:37:17.252Z,8.50
2023-04-21T05:39:45.149Z,8.60
2023-04-21T05:42:13.286Z,8.70
2023-04-21T05:44:41.169Z,9.00
2023-04-21T05:47:09.012Z,9.20
2023-04-21T05:49:36.866Z,9.40
2023-04-21T05:52:04.896Z,9.70
2023-04-21T05:54:34.173Z,9.90
2023-04-21T05:57:02.014Z,10.00
2023-04-21T05:59:29.843Z,10.90
2023-04-21T06:01:57.709Z,10.20
2023-04-21T06:04:26.123Z,10.30
2023-04-21T06:06:54.588Z,10.40
2023-04-21T06:09:22.615Z,10.50
2023-04-21T06:11:51.803Z,10.90
2023-04-21T06:14:19.817Z,10.80
2023-04-21T06:16:47.875Z,11.20
2023-04-21T06:19:15.746Z,11.60
2023-04-21T06:21:43.666Z,11.80
2023-04-21T06:24:11.506Z,11.90
2023-04-21T06:26:39.350Z,12.20
2023-04-21T06:29:08.583Z,14.10
2023-04-21T06:31:36.575Z,13.40
2023-04-21T06:34:04.440Z,12.10
2023-04-21T06:36:32.995Z,12.00
2023-04-21T06:39:01.146Z,12.10
2023-04-21T06:41:28.998Z,12.20
2023-04-21T06:43:56.951Z,12.30
2023-04-21T06:46:26.233Z,11.00
2023-04-21T06:48:54.088Z,13.40
2023-04-21T06:51:21.999Z,12.50
2023-04-21T06:53:50.006Z,13.40
2023-04-21T06:56:17.885Z,14.00
2023-04-21T06:58:48.960Z,13.70
2023-04-21T07:01:16.915Z,13.10
2023-04-21T07:03:46.555Z,13.30
2023-04-21T07:06:14.465Z,13.30
2023-04-21T07:08:42.430Z,13.50
2023-04-21T07:11:10.429Z,15.00
2023-04-21T07:13:39.398Z,13.60
2023-04-21T07:16:07.527Z,15.20
2023-04-21T07:18:35.507Z,15.00
2023-04-21T07:21:04.977Z,14.20
2023-04-21T07:23:32.876Z,14.20
2023-04-21T07:26:00.859Z,14.00
2023-04-21T07:28:28.823Z,14.20
2023-04-21T07:30:56.797Z,14.20
2023-04-21T07:33:24.684Z,14.20
2023-04-21T07:35:52.555Z,14.30
2023-04-21T07:38:21.860Z,15.40
2023-04-21T07:40:49.790Z,15.90
2023-04-21T07:43:19.817Z,14.60
2023-04-21T07:45:47.751Z,14.60
2023-04-21T07:48:15.776Z,15.20
2023-04-21T07:50:43.679Z,14.80
2023-04-21T07:53:11.664Z,14.80
2023-04-21T07:55:40.896Z,14.70
2023-04-21T07:58:10.017Z,14.80
2023-04-21T08:00:38.044Z,14.90
2023-04-21T08:03:06.073Z,15.20
2023-04-21T08:05:37.521Z,15.70
2023-04-21T08:08:08.327Z,15.40
2023-04-21T08:10:36.242Z,16.10
2023-04-21T08:13:06.448Z,17.60
2023-04-21T08:15:35.134Z,15.70
2023-04-21T08:18:03.321Z,15.70
2023-04-21T08:20:31.415Z,16.50
2023-04-21T08:22:59.329Z,15.80
2023-04-21T08:25:27.308Z,15.70
2023-04-21T08:27:55.226Z,15.80
2023-04-21T08:30:24.645Z,16.10
2023-04-21T08:32:52.560Z,16.10
2023-04-21T08:35:20.618Z,16.20
2023-04-21T08:37:48.740Z,16.10
2023-04-21T08:40:17.518Z,16.00
2023-04-21T08:42:46.457Z,16.40
2023-04-21T08:45:14.336Z,16.30
2023-04-21T08:47:43.718Z,16.60
2023-04-21T08:50:15.271Z,17.00
2023-04-21T08:52:43.154Z,16.70
2023-04-21T08:55:12.942Z,17.00
2023-04-21T08:57:40.860Z,17.10
2023-04-21T09:00:10.192Z,17.60
2023-04-21T09:03:01.313Z,17.80
2023-04-21T09:05:31.563Z,17.80
2023-04-21T09:08:09.578Z,18.10
2023-04-21T09:10:44.549Z,17.70
2023-04-21T09:13:12.471Z,17.90
2023-04-21T09:15:41.632Z,17.90
2023-04-21T09:18:15.081Z,18.30
2023-04-21T09:20:44.277Z,17.90
2023-04-21T09:23:12.983Z,18.40
2023-04-21T09:25:42.320Z,17.90
2023-04-21T09:28:10.816Z,18.90
2023-04-21T09:30:39.105Z,18.00
2023-04-21T09:33:19.958Z,19.10
2023-04-21T09:35:49.737Z,18.10
2023-04-21T09:38:17.928Z,18.20
2023-04-21T09:40:45.761Z,18.20
2023-04-21T09:43:13.697Z,18.50
2023-04-21T09:45:42.005Z,18.50
2023-04-21T09:48:12.642Z,18.40
2023-04-21T09:51:20.844Z,19.30
2023-04-21T09:53:35.564Z,18.80
2023-04-21T09:56:04.756Z,18.70
2023-04-21T09:58:41.637Z,18.80
2023-04-21T10:01:10.743Z,18.50
2023-04-21T10:03:40.710Z,18.50
2023-04-21T10:06:09.252Z,19.30
2023-04-21T10:08:38.968Z,18.70
2023-04-21T10:11:07.886Z,19.30
2023-04-21T10:13:36.733Z,18.60
2023-04-21T10:16:07.591Z,19.00
2023-04-21T10:18:38.235Z,19.00
2023-04-21T10:21:08.898Z,19.20
2023-04-21T10:23:44.390Z,19.10
2023-04-21T10:26:15.269Z,19.40
2023-04-21T10:28:45.492Z,20.00
2023-04-21T10:31:24.100Z,19.90
2023-04-21T10:34:17.458Z,19.60
2023-04-21T10:36:52.981Z,19.50
2023-04-21T10:39:29.498Z,19.60
2023-04-21T10:41:59.085Z,19.80
2023-04-21T10:44:30.726Z,19.70
2023-04-21T10:47:00.318Z,20.10
2023-04-21T10:49:30.226Z,19.90
2023-04-21T10:52:08.650Z,19.70
2023-04-21T10:54:45.640Z,19.90
2023-04-21T10:57:15.726Z,19.70
2023-04-21T10:59:44.962Z,19.90
2023-04-21T11:02:14.765Z,20.20
2023-04-21T11:04:47.901Z,20.40
2023-04-21T11:07:18.291Z,20.50
2023-04-21T11:09:48.880Z,20.60
2023-04-21T11:12:18.916Z,20.50
2023-04-21T11:14:48.150Z,20.70
2023-04-21T11:17:18.299Z,20.90
2023-04-21T11:19:47.257Z,20.60
2023-04-21T11:22:17.251Z,21.10
2023-04-21T11:24:48.003Z,20.60
2023-04-21T11:27:16.252Z,20.90
2023-04-21T11:29:45.704Z,20.60
2023-04-21T11:32:14.327Z,20.60
2023-04-21T11:34:42.567Z,20.90
2023-04-21T11:37:11.733Z,20.50
2023-04-21T11:39:42.903Z,20.90
2023-04-21T11:42:12.631Z,20.60
2023-04-21T11:44:41.950Z,21.00
2023-04-21T11:47:16.760Z,21.20
2023-04-21T11:49:49.903Z,21.00
2023-04-21T11:52:28.136Z,21.10
2023-04-21T11:54:59.328Z,20.80
2023-04-21T11:57:30.236Z,20.90
2023-04-21T12:00:00.061Z,21.00
2023-04-21T12:02:30.905Z,21.20
2023-04-21T12:05:01.349Z,20.90
2023-04-21T12:07:31.299Z,21.00
2023-04-21T12:10:00.472Z,21.10
2023-04-21T12:12:29.874Z,20.90
2023-04-21T12:14:57.718Z,21.20
2023-04-21T12:17:25.660Z,20.80
2023-04-21T12:19:53.500Z,21.30
2023-04-21T12:22:23.458Z,21.10
2023-04-21T12:24:51.349Z,20.80
2023-04-21T12:27:19.928Z,21.20
2023-04-21T12:29:49.122Z,20.90
2023-04-21T12:32:17.067Z,20.90
2023-04-21T12:34:44.921Z,20.70
2023-04-21T12:37:12.781Z,21.00
2023-04-21T12:39:40.643Z,20.70
2023-04-21T12:42:09.204Z,20.90
2023-04-21T12:44:37.145Z,21.00
2023-04-21T12:47:06.897Z,20.90
2023-04-21T12:49:34.804Z,20.90
2023-04-21T12:52:05.458Z,20.90
2023-04-21T12:54:33.412Z,20.90
2023-04-21T12:57:01.672Z,21.00
2023-04-21T12:59:29.750Z,21.30
2023-04-21T13:01:57.841Z,20.90
2023-04-21T13:04:27.359Z,21.00
2023-04-21T13:06:55.298Z,20.90
2023-04-21T13:09:23.211Z,21.00
2023-04-21T13:11:51.654Z,21.20
2023-04-21T13:14:19.720Z,21.20
2023-04-21T13:16:47.990Z,21.10
2023-04-21T13:19:15.930Z,21.50
2023-04-21T13:21:45.187Z,20.90
2023-04-21T13:24:14.870Z,20.70
2023-04-21T13:26:42.993Z,20.70
2023-04-21T13:29:10.916Z,20.70
2023-04-21T13:31:38.941Z,21.30
2023-04-21T13:34:06.997Z,20.70
2023-04-21T13:36:34.925Z,20.90
2023-04-21T13:39:05.493Z,20.80
2023-04-21T13:41:33.423Z,20.60
2023-04-21T13:44:01.354Z,20.40
2023-04-21T13:46:29.769Z,20.60
2023-04-21T13:48:57.998Z,20.60
2023-04-21T13:51:26.234Z,20.60
2023-04-21T13:53:54.312Z,20.80
2023-04-21T13:56:23.554Z,20.80
2023-04-21T13:58:51.492Z,20.80
2023-04-21T14:01:21.427Z,20.70
2023-04-21T14:03:49.925Z,20.80
2023-04-21T14:06:17.937Z,20.80
2023-04-21T14:08:45.922Z,20.80
2023-04-21T14:11:13.774Z,20.80
2023-04-21T14:13:59.550Z,20.80
2023-04-21T14:16:30.934Z,20.80
2023-04-21T14:18:59.023Z,20.70
2023-04-21T14:21:26.963Z,20.70
2023-04-21T14:23:54.788Z,20.60
2023-04-21T14:26:22.797Z,21.00
2023-04-21T14:28:52.061Z,20.70
2023-04-21T14:31:21.866Z,20.70
2023-04-21T14:33:50.217Z,21.00
2023-04-21T14:36:18.134Z,20.60
2023-04-21T14:38:47.129Z,20.60
2023-04-21T14:41:15.082Z,20.80
2023-04-21T14:43:42.982Z,20.60
2023-04-21T14:46:12.409Z,20.40
2023-04-21T14:48:42.132Z,20.40
2023-04-21T14:51:10.207Z,20.20
2023-04-21T14:53:38.250Z,20.30
2023-04-21T14:56:06.468Z,20.30
2023-04-21T14:58:34.905Z,20.30
2023-04-21T15:01:02.959Z,20.30
2023-04-21T15:03:32.496Z,20.30
2023-04-21T15:06:00.689Z,20.10
2023-04-21T15:08:28.566Z,20.30
2023-04-21T15:10:56.989Z,20.10
2023-04-21T15:13:24.941Z,20.20
2023-04-21T15:15:52.902Z,20.00
2023-04-21T15:18:20.858Z,20.50
2023-04-21T15:20:50.294Z,20.40
2023-04-21T15:23:18.260Z,20.10
2023-04-21T15:25:46.465Z,20.30
2023-04-21T15:28:14.417Z,20.10
2023-04-21T15:30:42.336Z,20.30
2023-04-21T15:33:11.500Z,20.40
2023-04-21T15:35:39.749Z,20.20
2023-04-21T15:38:09.205Z,19.90
2023-04-21T15:40:46.379Z,19.90
2023-04-21T15:43:22.526Z,19.90
2023-04-21T15:45:52.319Z,19.90
2023-04-21T15:48:21.970Z,20.00
2023-04-21T15:50:49.998Z,19.80
2023-04-21T15:53:20.338Z,19.90
2023-04-21T15:55:48.504Z,19.80
2023-04-21T15:58:17.120Z,19.70
2023-04-21T16:00:45.839Z,19.70
2023-04-21T16:03:15.164Z,19.60
2023-04-21T16:05:43.546Z,19.60
2023-04-21T16:08:11.466Z,19.70
2023-04-21T16:10:40.688Z,19.70
2023-04-21T16:13:08.631Z,19.50
2023-04-21T16:15:36.595Z,19.40
2023-04-21T16:18:06.437Z,19.50
2023-04-21T16:20:34.455Z,19.50
2023-04-21T16:23:04.524Z,19.50
2023-04-21T16:25:32.725Z,19.50
2023-04-21T16:28:02.091Z,19.80
2023-04-21T16:30:29.963Z,19.40
2023-04-21T16:32:57.846Z,19.30
2023-04-21T16:35:25.996Z,19.60
2023-04-21T16:37:53.957Z,19.40
2023-04-21T16:40:24.067Z,19.10
2023-04-21T16:42:52.438Z,19.10
2023-04-21T16:45:21.911Z,19.00
2023-04-21T16:47:50.056Z,18.90
2023-04-21T16:50:18.020Z,18.90
2023-04-21T16:52:45.940Z,18.80
2023-04-21T16:55:13.837Z,19.00
2023-04-21T16:57:41.731Z,19.00
2023-04-21T17:00:10.556Z,18.80
2023-04-21T17:02:39.964Z,18.70
2023-04-21T17:05:08.228Z,18.80
2023-04-21T17:07:36.271Z,18.60
2023-04-21T17:10:04.183Z,18.70
2023-04-21T17:12:32.025Z,18.50
2023-04-21T17:14:59.928Z,18.50
2023-04-21T17:17:27.946Z,18.60
2023-04-21T17:19:57.189Z,18.30
2023-04-21T17:22:25.020Z,18.30
2023-04-21T17:24:53.937Z,18.30
2023-04-21T17:27:22.360Z,18.20
2023-04-21T17:29:51.078Z,18.20
2023-04-21T17:32:19.524Z,18.10
2023-04-21T17:34:47.638Z,18.00
2023-04-21T17:37:16.902Z,18.10
2023-04-21T17:39:44.832Z,18.00
2023-04-21T17:42:12.689Z,18.00
2023-04-21T17:44:41.249Z,18.10
2023-04-21T17:47:09.866Z,17.90
2023-04-21T17:49:37.900Z,18.20
2023-04-21T17:52:06.468Z,17.60
2023-04-21T17:54:36.912Z,17.70
2023-04-21T17:57:06.716Z,17.60
2023-04-21T17:59:34.724Z,17.50
2023-04-21T18:02:02.865Z,17.50
2023-04-21T18:04:31.027Z,17.90
2023-04-21T18:06:59.547Z,17.30
2023-04-21T18:09:27.614Z,17.30
2023-04-21T18:11:58.290Z,17.10
2023-04-21T18:14:26.779Z,17.80
2023-04-21T18:16:55.028Z,17.00
2023-04-21T18:19:22.902Z,16.90
2023-04-21T18:21:50.795Z,16.90
2023-04-21T18:24:18.753Z,17.00
2023-04-21T18:26:47.387Z,16.90
2023-04-21T18:29:17.772Z,16.60
2023-04-21T18:31:46.227Z,16.80
2023-04-21T18:34:15.084Z,16.60
2023-04-21T18:36:43.454Z,17.00
2023-04-21T18:39:11.432Z,16.40
2023-04-21T18:41:40.313Z,16.90
2023-04-21T18:44:08.339Z,16.90
2023-04-21T18:46:37.757Z,16.40
2023-04-21T18:49:05.894Z,16.40
2023-04-21T18:51:34.200Z,16.50
2023-04-21T18:54:02.068Z,16.50
2023-04-21T18:56:31.272Z,16.40
2023-04-21T18:58:59.175Z,16.00
2023-04-21T19:01:27.375Z,16.50
2023-04-21T19:03:57.015Z,16.40
2023-04-21T19:06:25.271Z,16.00
2023-04-21T19:08:53.197Z,15.50
2023-04-21T19:11:21.502Z,16.00
2023-04-21T19:13:49.565Z,15.50
2023-04-21T19:16:17.577Z,16.10
2023-04-21T19:18:46.445Z,16.50
2023-04-21T19:21:15.655Z,15.90
2023-04-21T19:23:43.566Z,15.50
2023-04-21T19:26:13.159Z,15.90
2023-04-21T19:28:41.362Z,15.30
2023-04-21T19:31:09.600Z,15.60
2023-04-21T19:33:37.473Z,15.60
2023-04-21T19:36:06.441Z,15.70
2023-04-21T19:38:36.107Z,14.90
2023-04-21T19:41:03.998Z,15.70
2023-04-21T19:43:31.846Z,15.90
2023-04-21T19:45:59.796Z,14.90
2023-04-21T19:48:27.767Z,15.50
2023-04-21T19:50:55.938Z,14.90
2023-04-21T19:53:23.806Z,15.30
2023-04-21T19:55:53.076Z,15.70
2023-04-21T19:58:36.363Z,15.40
2023-04-21T20:01:07.246Z,15.40
2023-04-21T20:03:35.494Z,15.20
2023-04-21T20:06:04.759Z,15.00
2023-04-21T20:08:32.705Z,14.70
2023-04-21T20:11:01.916Z,14.70
2023-04-21T20:13:29.764Z,15.80
2023-04-21T20:15:58.061Z,15.80
2023-04-21T20:18:26.089Z,14.70
2023-04-21T20:20:54.113Z,15.00
2023-04-21T20:23:22.159Z,15.00
2023-04-21T20:25:49.983Z,14.70
2023-04-21T20:28:19.310Z,14.50
2023-04-21T20:30:47.163Z,14.60
2023-04-21T20:33:17.060Z,14.60
2023-04-21T20:35:45.967Z,15.10
2023-04-21T20:38:14.287Z,15.30
2023-04-21T20:40:42.255Z,14.60
2023-04-21T20:43:10.372Z,15.40
2023-04-21T20:45:41.136Z,14.70
2023-04-21T20:48:09.049Z,14.60
2023-04-21T20:50:36.952Z,15.10
2023-04-21T20:53:07.246Z,14.30
2023-04-21T20:55:35.250Z,14.40
2023-04-21T20:58:03.214Z,14.60
2023-04-21T21:00:32.703Z,14.10
2023-04-21T21:03:02.202Z,14.40
2023-04-21T21:05:33.236Z,14.60
2023-04-21T21:08:01.213Z,14.60
2023-04-21T21:10:29.267Z,14.10
2023-04-21T21:12:58.019Z,13.70
2023-04-21T21:15:26.009Z,14.20
2023-04-21T21:17:53.943Z,13.70
2023-04-21T21:20:23.495Z,13.60
2023-04-21T21:22:51.382Z,13.40
2023-04-21T21:25:19.331Z,13.40
2023-04-21T21:27:47.391Z,14.20
2023-04-21T21:30:15.615Z,13.20
2023-04-21T21:32:43.623Z,13.20
2023-04-21T21:35:11.878Z,13.20
2023-04-21T21:37:41.303Z,13.70
2023-04-21T21:40:10.802Z,13.20
2023-04-21T21:42:38.920Z,13.10
2023-04-21T21:45:07.923Z,13.20
2023-04-21T21:47:39.420Z,13.10
2023-04-21T21:50:11.139Z,13.10
2023-04-21T21:52:39.043Z,13.10
2023-04-21T21:55:09.455Z,13.60
2023-04-21T21:57:37.428Z,13.20
2023-04-21T22:00:08.219Z,13.10
2023-04-21T22:02:36.632Z,13.10
2023-04-21T22:05:06.112Z,13.50
2023-04-21T22:07:35.338Z,13.20
2023-04-21T22:10:03.674Z,13.10
2023-04-21T22:12:33.691Z,13.30
2023-04-21T22:15:01.639Z,13.40
2023-04-21T22:17:29.912Z,13.10
2023-04-21T22:19:57.869Z,13.50
2023-04-21T22:22:25.735Z,13.10
2023-04-21T22:24:53.637Z,13.40
2023-04-21T22:27:21.527Z,13.10
2023-04-21T22:29:51.313Z,13.30
2023-04-21T22:32:19.188Z,13.00
2023-04-21T22:34:47.054Z,13.00
2023-04-21T22:37:14.897Z,13.00
2023-04-21T22:39:42.767Z,13.80
2023-04-21T22:42:10.614Z,13.00
2023-04-21T22:44:38.564Z,13.20
2023-04-21T22:47:10.381Z,13.00
2023-04-21T22:49:38.742Z,13.00
2023-04-21T22:52:07.060Z,12.80
2023-04-21T22:54:34.890Z,12.70
2023-04-21T22:57:03.483Z,12.70
2023-04-21T22:59:31.391Z,12.60
2023-04-21T23:01:59.367Z,12.80
2023-04-21T23:04:28.642Z,12.50
2023-04-21T23:06:56.460Z,12.20
2023-04-21T23:09:24.431Z,12.30
2023-04-21T23:11:52.340Z,12.30
2023-04-21T23:14:20.028Z,12.30
2023-04-21T23:16:47.854Z,12.90
2023-04-21T23:19:15.773Z,12.20
2023-04-21T23:21:46.383Z,12.80
2023-04-21T23:24:14.304Z,12.20
2023-04-21T23:26:42.172Z,12.20
2023-04-21T23:29:10.002Z,12.10
2023-04-21T23:31:38.181Z,12.00
2023-04-21T23:34:06.162Z,12.00
2023-04-21T23:36:34.034Z,12.00
2023-04-21T23:39:03.335Z,11.90
2023-04-21T23:41:31.337Z,12.40
2023-04-21T23:43:59.183Z,11.90
2023-04-21T23:46:27.119Z,11.90
2023-04-21T23:48:55.038Z,11.80
2023-04-21T23:51:23.258Z,11.70
2023-04-21T23:53:51.452Z,12.20
2023-04-21T23:56:20.739Z,11.90
2023-04-21T23:58:48.559Z,13.80
